sensor_id;sensor_type;location;lat;lon;timestamp;P1;durP1;ratioP1;P2;durP2;ratioP2
85265;SDS011;75676;49.522;19.724;2024-03-23T00:56:23;15.40;;;6.22;;
85265;SDS011;75676;49.522;19.724;2024-03-23T00:58:49;13.60;;;6.63;;
85265;SDS011;75676;49.522;19.724;2024-03-23T01:01:15;13.85;;;5.97;;
85265;SDS011;75676;49.522;19.724;2024-03-23T01:03:42;17.30;;;6.68;;
85265;SDS011;75676;49.522;19.724;2024-03-23T01:06:08;15.07;;;6.15;;
85265;SDS011;75676;49.522;19.724;2024-03-23T01:08:34;14.40;;;5.93;;
85265;SDS011;75676;49.522;19.724;2024-03-23T01:11:00;15.13;;;6.53;;
85265;SDS011;75676;49.522;19.724;2024-03-23T01:13:27;18.08;;;7.60;;
85265;SDS011;75676;49.522;19.724;2024-03-23T01:15:53;16.95;;;8.30;;
85265;SDS011;75676;49.522;19.724;2024-03-23T01:18:20;14.70;;;7.93;;
85265;SDS011;75676;49.522;19.724;2024-03-23T01:20:47;16.45;;;7.57;;
85265;SDS011;75676;49.522;19.724;2024-03-23T01:23:14;15.35;;;6.78;;
85265;SDS011;75676;49.522;19.724;2024-03-23T01:25:40;18.58;;;8.15;;
85265;SDS011;75676;49.522;19.724;2024-03-23T01:28:07;18.48;;;7.63;;
85265;SDS011;75676;49.522;19.724;2024-03-23T01:30:33;17.60;;;7.47;;
85265;SDS011;75676;49.522;19.724;2024-03-23T01:33:00;14.50;;;7.32;;
85265;SDS011;75676;49.522;19.724;2024-03-23T01:35:26;16.38;;;7.47;;
85265;SDS011;75676;49.522;19.724;2024-03-23T01:37:52;13.38;;;5.68;;
85265;SDS011;75676;49.522;19.724;2024-03-23T01:40:18;10.40;;;4.90;;
85265;SDS011;75676;49.522;19.724;2024-03-23T01:42:57;14.02;;;5.45;;
85265;SDS011;75676;49.522;19.724;2024-03-23T01:45:23;12.40;;;4.95;;
85265;SDS011;75676;49.522;19.724;2024-03-23T01:47:50;12.88;;;6.00;;
85265;SDS011;75676;49.522;19.724;2024-03-23T01:50:18;11.45;;;5.25;;
85265;SDS011;75676;49.522;19.724;2024-03-23T01:52:45;13.65;;;5.72;;
85265;SDS011;75676;49.522;19.724;2024-03-23T01:55:12;12.85;;;5.60;;
85265;SDS011;75676;49.522;19.724;2024-03-23T01:57:38;9.80;;;4.68;;
85265;SDS011;75676;49.522;19.724;2024-03-23T02:00:04;11.93;;;5.13;;
85265;SDS011;75676;49.522;19.724;2024-03-23T02:02:31;10.57;;;5.10;;
85265;SDS011;75676;49.522;19.724;2024-03-23T02:04:57;18.85;;;8.43;;
85265;SDS011;75676;49.522;19.724;2024-03-23T02:07:24;23.00;;;9.57;;
85265;SDS011;75676;49.522;19.724;2024-03-23T02:09:53;24.42;;;9.68;;
85265;SDS011;75676;49.522;19.724;2024-03-23T02:20:11;17.85;;;7.53;;
85265;SDS011;75676;49.522;19.724;2024-03-23T02:23:01;13.15;;;6.35;;
85265;SDS011;75676;49.522;19.724;2024-03-23T02:26:05;17.95;;;7.90;;
85265;SDS011;75676;49.522;19.724;2024-03-23T02:29:11;19.33;;;7.97;;
85265;SDS011;75676;49.522;19.724;2024-03-23T02:36:03;12.90;;;6.22;;
85265;SDS011;75676;49.522;19.724;2024-03-23T02:45:43;14.23;;;6.40;;
85265;SDS011;75676;49.522;19.724;2024-03-23T02:48:09;15.05;;;6.30;;
85265;SDS011;75676;49.522;19.724;2024-03-23T02:50:35;14.07;;;6.53;;
85265;SDS011;75676;49.522;19.724;2024-03-23T02:53:01;14.95;;;5.82;;
85265;SDS011;75676;49.522;19.724;2024-03-23T02:55:27;12.23;;;5.57;;
85265;SDS011;75676;49.522;19.724;2024-03-23T02:57:53;18.42;;;7.90;;
85265;SDS011;75676;49.522;19.724;2024-03-23T03:00:19;15.43;;;6.45;;
85265;SDS011;75676;49.522;19.724;2024-03-23T03:02:45;14.45;;;6.47;;
85265;SDS011;75676;49.522;19.724;2024-03-23T03:05:11;13.27;;;6.30;;
85265;SDS011;75676;49.522;19.724;2024-03-23T03:07:38;14.50;;;6.93;;
85265;SDS011;75676;49.522;19.724;2024-03-23T03:10:06;13.27;;;6.43;;
85265;SDS011;75676;49.522;19.724;2024-03-23T03:12:34;15.00;;;6.78;;
85265;SDS011;75676;49.522;19.724;2024-03-23T03:15:00;18.65;;;7.18;;
85265;SDS011;75676;49.522;19.724;2024-03-23T03:17:25;17.40;;;7.40;;
85265;SDS011;75676;49.522;19.724;2024-03-23T03:19:51;14.52;;;6.70;;
85265;SDS011;75676;49.522;19.724;2024-03-23T03:22:21;15.73;;;6.28;;
85265;SDS011;75676;49.522;19.724;2024-03-23T03:24:48;17.77;;;6.53;;
85265;SDS011;75676;49.522;19.724;2024-03-23T03:27:15;16.17;;;7.32;;
85265;SDS011;75676;49.522;19.724;2024-03-23T03:29:41;14.15;;;7.18;;
85265;SDS011;75676;49.522;19.724;2024-03-23T03:32:07;13.98;;;6.45;;
85265;SDS011;75676;49.522;19.724;2024-03-23T03:34:33;17.70;;;7.82;;
85265;SDS011;75676;49.522;19.724;2024-03-23T03:36:59;15.32;;;6.88;;
85265;SDS011;75676;49.522;19.724;2024-03-23T03:39:25;14.70;;;6.47;;
85265;SDS011;75676;49.522;19.724;2024-03-23T03:41:50;11.40;;;5.88;;
85265;SDS011;75676;49.522;19.724;2024-03-23T03:44:16;13.40;;;6.25;;
85265;SDS011;75676;49.522;19.724;2024-03-23T03:46:42;15.88;;;5.93;;
85265;SDS011;75676;49.522;19.724;2024-03-23T03:49:08;14.52;;;7.00;;
85265;SDS011;75676;49.522;19.724;2024-03-23T03:51:34;13.63;;;6.88;;
85265;SDS011;75676;49.522;19.724;2024-03-23T03:54:00;15.88;;;7.00;;
85265;SDS011;75676;49.522;19.724;2024-03-23T03:56:26;21.55;;;7.85;;
85265;SDS011;75676;49.522;19.724;2024-03-23T03:58:53;16.30;;;6.30;;
85265;SDS011;75676;49.522;19.724;2024-03-23T04:01:19;16.48;;;7.30;;
85265;SDS011;75676;49.522;19.724;2024-03-23T04:03:45;20.15;;;8.18;;
85265;SDS011;75676;49.522;19.724;2024-03-23T04:06:11;17.42;;;8.18;;
85265;SDS011;75676;49.522;19.724;2024-03-23T04:08:43;18.83;;;7.60;;
85265;SDS011;75676;49.522;19.724;2024-03-23T04:11:09;19.02;;;7.72;;
85265;SDS011;75676;49.522;19.724;2024-03-23T04:13:36;16.20;;;7.28;;
85265;SDS011;75676;49.522;19.724;2024-03-23T04:16:01;30.33;;;12.48;;
85265;SDS011;75676;49.522;19.724;2024-03-23T04:18:27;18.33;;;8.80;;
85265;SDS011;75676;49.522;19.724;2024-03-23T04:20:54;18.70;;;8.68;;
85265;SDS011;75676;49.522;19.724;2024-03-23T04:23:19;21.60;;;10.52;;
85265;SDS011;75676;49.522;19.724;2024-03-23T04:25:46;23.45;;;13.35;;
85265;SDS011;75676;49.522;19.724;2024-03-23T04:28:12;21.75;;;13.23;;
85265;SDS011;75676;49.522;19.724;2024-03-23T04:30:37;23.70;;;11.15;;
85265;SDS011;75676;49.522;19.724;2024-03-23T04:33:03;18.23;;;7.93;;
85265;SDS011;75676;49.522;19.724;2024-03-23T04:35:30;18.30;;;7.43;;
85265;SDS011;75676;49.522;19.724;2024-03-23T04:37:56;26.00;;;12.65;;
85265;SDS011;75676;49.522;19.724;2024-03-23T04:40:24;21.85;;;9.45;;
85265;SDS011;75676;49.522;19.724;2024-03-23T04:42:50;18.85;;;7.65;;
85265;SDS011;75676;49.522;19.724;2024-03-23T04:45:16;16.25;;;7.45;;
85265;SDS011;75676;49.522;19.724;2024-03-23T04:47:43;15.98;;;7.10;;
85265;SDS011;75676;49.522;19.724;2024-03-23T04:50:10;17.90;;;7.10;;
85265;SDS011;75676;49.522;19.724;2024-03-23T04:52:36;17.10;;;7.10;;
85265;SDS011;75676;49.522;19.724;2024-03-23T04:55:02;13.93;;;6.40;;
85265;SDS011;75676;49.522;19.724;2024-03-23T04:57:29;14.27;;;5.78;;
85265;SDS011;75676;49.522;19.724;2024-03-23T04:59:55;13.48;;;6.65;;
85265;SDS011;75676;49.522;19.724;2024-03-23T05:02:20;14.10;;;6.60;;
85265;SDS011;75676;49.522;19.724;2024-03-23T05:04:47;16.00;;;6.57;;
85265;SDS011;75676;49.522;19.724;2024-03-23T05:07:12;13.35;;;6.10;;
85265;SDS011;75676;49.522;19.724;2024-03-23T05:09:38;8.48;;;4.13;;
85265;SDS011;75676;49.522;19.724;2024-03-23T05:12:04;11.07;;;5.18;;
85265;SDS011;75676;49.522;19.724;2024-03-23T05:14:31;15.52;;;7.30;;
85265;SDS011;75676;49.522;19.724;2024-03-23T05:16:56;12.15;;;5.32;;
85265;SDS011;75676;49.522;19.724;2024-03-23T05:19:22;14.27;;;5.38;;
85265;SDS011;75676;49.522;19.724;2024-03-23T05:21:49;11.43;;;5.35;;
85265;SDS011;75676;49.522;19.724;2024-03-23T05:24:15;9.77;;;4.40;;
85265;SDS011;75676;49.522;19.724;2024-03-23T05:26:41;15.90;;;5.85;;
85265;SDS011;75676;49.522;19.724;2024-03-23T05:29:07;20.73;;;9.30;;
85265;SDS011;75676;49.522;19.724;2024-03-23T05:31:36;8.77;;;4.65;;
85265;SDS011;75676;49.522;19.724;2024-03-23T05:34:03;12.13;;;5.13;;
85265;SDS011;75676;49.522;19.724;2024-03-23T05:36:29;17.77;;;7.80;;
85265;SDS011;75676;49.522;19.724;2024-03-23T05:38:55;13.40;;;6.70;;
85265;SDS011;75676;49.522;19.724;2024-03-23T05:41:20;14.60;;;6.18;;
85265;SDS011;75676;49.522;19.724;2024-03-23T05:43:47;13.25;;;5.55;;
85265;SDS011;75676;49.522;19.724;2024-03-23T05:46:14;14.13;;;7.38;;
85265;SDS011;75676;49.522;19.724;2024-03-23T05:48:39;13.13;;;6.85;;
85265;SDS011;75676;49.522;19.724;2024-03-23T05:51:05;22.42;;;7.80;;
85265;SDS011;75676;49.522;19.724;2024-03-23T05:53:31;20.13;;;7.70;;
85265;SDS011;75676;49.522;19.724;2024-03-23T05:56:01;14.35;;;7.10;;
85265;SDS011;75676;49.522;19.724;2024-03-23T05:58:32;19.83;;;8.68;;
85265;SDS011;75676;49.522;19.724;2024-03-23T06:00:58;17.98;;;7.80;;
85265;SDS011;75676;49.522;19.724;2024-03-23T06:03:28;20.88;;;9.50;;
85265;SDS011;75676;49.522;19.724;2024-03-23T06:05:56;19.13;;;8.43;;
85265;SDS011;75676;49.522;19.724;2024-03-23T06:08:22;21.65;;;9.95;;
85265;SDS011;75676;49.522;19.724;2024-03-23T06:10:51;19.85;;;8.75;;
85265;SDS011;75676;49.522;19.724;2024-03-23T06:13:17;22.08;;;7.40;;
85265;SDS011;75676;49.522;19.724;2024-03-23T06:15:43;14.55;;;6.90;;
85265;SDS011;75676;49.522;19.724;2024-03-23T06:18:10;17.83;;;7.22;;
85265;SDS011;75676;49.522;19.724;2024-03-23T06:20:37;14.57;;;7.28;;
85265;SDS011;75676;49.522;19.724;2024-03-23T06:23:03;18.15;;;7.80;;
85265;SDS011;75676;49.522;19.724;2024-03-23T06:25:29;17.10;;;8.38;;
85265;SDS011;75676;49.522;19.724;2024-03-23T06:27:56;22.58;;;8.65;;
85265;SDS011;75676;49.522;19.724;2024-03-23T06:30:23;16.75;;;7.57;;
85265;SDS011;75676;49.522;19.724;2024-03-23T06:32:51;15.15;;;7.63;;
85265;SDS011;75676;49.522;19.724;2024-03-23T06:35:20;20.70;;;8.23;;
85265;SDS011;75676;49.522;19.724;2024-03-23T06:37:46;14.55;;;6.97;;
85265;SDS011;75676;49.522;19.724;2024-03-23T06:40:11;21.52;;;8.48;;
85265;SDS011;75676;49.522;19.724;2024-03-23T06:42:37;15.63;;;7.60;;
85265;SDS011;75676;49.522;19.724;2024-03-23T06:45:03;14.60;;;7.18;;
85265;SDS011;75676;49.522;19.724;2024-03-23T06:47:32;16.90;;;7.88;;
85265;SDS011;75676;49.522;19.724;2024-03-23T06:50:02;18.00;;;7.05;;
85265;SDS011;75676;49.522;19.724;2024-03-23T06:52:29;16.65;;;7.82;;
85265;SDS011;75676;49.522;19.724;2024-03-23T06:54:55;16.77;;;8.23;;
85265;SDS011;75676;49.522;19.724;2024-03-23T06:57:21;23.52;;;9.98;;
85265;SDS011;75676;49.522;19.724;2024-03-23T06:59:47;17.70;;;8.05;;
85265;SDS011;75676;49.522;19.724;2024-03-23T07:02:13;15.48;;;7.10;;
85265;SDS011;75676;49.522;19.724;2024-03-23T07:04:39;12.23;;;6.25;;
85265;SDS011;75676;49.522;19.724;2024-03-23T07:07:05;18.80;;;7.93;;
85265;SDS011;75676;49.522;19.724;2024-03-23T07:09:31;13.60;;;5.25;;
85265;SDS011;75676;49.522;19.724;2024-03-23T07:11:57;10.88;;;5.75;;
85265;SDS011;75676;49.522;19.724;2024-03-23T07:14:23;15.55;;;7.90;;
85265;SDS011;75676;49.522;19.724;2024-03-23T07:16:50;12.57;;;6.82;;
85265;SDS011;75676;49.522;19.724;2024-03-23T07:19:16;14.55;;;7.80;;
85265;SDS011;75676;49.522;19.724;2024-03-23T07:21:43;20.90;;;8.93;;
85265;SDS011;75676;49.522;19.724;2024-03-23T07:24:12;25.38;;;9.30;;
85265;SDS011;75676;49.522;19.724;2024-03-23T07:26:37;27.08;;;10.63;;
85265;SDS011;75676;49.522;19.724;2024-03-23T07:29:04;17.85;;;8.45;;
85265;SDS011;75676;49.522;19.724;2024-03-23T07:31:30;23.55;;;11.60;;
85265;SDS011;75676;49.522;19.724;2024-03-23T07:33:56;22.35;;;9.27;;
85265;SDS011;75676;49.522;19.724;2024-03-23T07:36:23;19.95;;;7.95;;
85265;SDS011;75676;49.522;19.724;2024-03-23T07:38:49;12.48;;;6.78;;
85265;SDS011;75676;49.522;19.724;2024-03-23T07:41:17;21.15;;;10.18;;
85265;SDS011;75676;49.522;19.724;2024-03-23T07:43:45;18.42;;;10.05;;
85265;SDS011;75676;49.522;19.724;2024-03-23T07:46:12;17.70;;;8.85;;
85265;SDS011;75676;49.522;19.724;2024-03-23T07:48:39;12.70;;;7.15;;
85265;SDS011;75676;49.522;19.724;2024-03-23T07:51:08;14.73;;;6.55;;
85265;SDS011;75676;49.522;19.724;2024-03-23T07:53:36;18.85;;;9.75;;
85265;SDS011;75676;49.522;19.724;2024-03-23T07:56:03;15.35;;;7.53;;
85265;SDS011;75676;49.522;19.724;2024-03-23T07:58:33;12.88;;;6.80;;
85265;SDS011;75676;49.522;19.724;2024-03-23T08:01:03;10.60;;;5.75;;
85265;SDS011;75676;49.522;19.724;2024-03-23T08:03:45;16.83;;;8.32;;
85265;SDS011;75676;49.522;19.724;2024-03-23T08:06:15;16.08;;;6.95;;
85265;SDS011;75676;49.522;19.724;2024-03-23T08:08:44;17.65;;;7.22;;
85265;SDS011;75676;49.522;19.724;2024-03-23T08:11:10;17.20;;;8.18;;
85265;SDS011;75676;49.522;19.724;2024-03-23T08:13:39;15.75;;;6.43;;
85265;SDS011;75676;49.522;19.724;2024-03-23T08:16:06;21.50;;;9.15;;
85265;SDS011;75676;49.522;19.724;2024-03-23T08:18:34;12.30;;;6.30;;
85265;SDS011;75676;49.522;19.724;2024-03-23T08:21:03;21.65;;;10.15;;
85265;SDS011;75676;49.522;19.724;2024-03-23T08:23:30;17.85;;;7.95;;
85265;SDS011;75676;49.522;19.724;2024-03-23T08:26:08;31.20;;;11.82;;
85265;SDS011;75676;49.522;19.724;2024-03-23T08:28:35;22.02;;;12.35;;
85265;SDS011;75676;49.522;19.724;2024-03-23T08:31:08;10.30;;;4.80;;
85265;SDS011;75676;49.522;19.724;2024-03-23T08:33:34;28.58;;;12.80;;
85265;SDS011;75676;49.522;19.724;2024-03-23T08:36:01;23.42;;;11.60;;
85265;SDS011;75676;49.522;19.724;2024-03-23T08:38:28;19.27;;;9.32;;
85265;SDS011;75676;49.522;19.724;2024-03-23T08:41:02;15.45;;;7.78;;
85265;SDS011;75676;49.522;19.724;2024-03-23T08:43:29;10.68;;;5.07;;
85265;SDS011;75676;49.522;19.724;2024-03-23T08:46:03;11.02;;;5.97;;
85265;SDS011;75676;49.522;19.724;2024-03-23T08:48:37;9.32;;;5.40;;
85265;SDS011;75676;49.522;19.724;2024-03-23T08:51:04;9.48;;;4.88;;
85265;SDS011;75676;49.522;19.724;2024-03-23T08:53:34;8.77;;;4.50;;
85265;SDS011;75676;49.522;19.724;2024-03-23T08:56:00;9.75;;;5.68;;
85265;SDS011;75676;49.522;19.724;2024-03-23T08:58:28;11.20;;;5.78;;
85265;SDS011;75676;49.522;19.724;2024-03-23T09:00:55;8.68;;;5.15;;
85265;SDS011;75676;49.522;19.724;2024-03-23T09:03:25;12.10;;;5.85;;
85265;SDS011;75676;49.522;19.724;2024-03-23T09:05:52;13.52;;;5.47;;
85265;SDS011;75676;49.522;19.724;2024-03-23T09:08:19;10.77;;;5.53;;
85265;SDS011;75676;49.522;19.724;2024-03-23T09:10:46;15.73;;;7.07;;
85265;SDS011;75676;49.522;19.724;2024-03-23T09:13:13;24.38;;;11.43;;
85265;SDS011;75676;49.522;19.724;2024-03-23T09:15:49;16.15;;;8.00;;
85265;SDS011;75676;49.522;19.724;2024-03-23T09:18:16;9.38;;;4.82;;
85265;SDS011;75676;49.522;19.724;2024-03-23T09:20:42;9.88;;;4.50;;
85265;SDS011;75676;49.522;19.724;2024-03-23T09:23:08;17.92;;;10.13;;
85265;SDS011;75676;49.522;19.724;2024-03-23T09:25:38;18.15;;;9.35;;
85265;SDS011;75676;49.522;19.724;2024-03-23T09:28:05;13.70;;;5.68;;
85265;SDS011;75676;49.522;19.724;2024-03-23T09:30:35;10.70;;;5.18;;
85265;SDS011;75676;49.522;19.724;2024-03-23T09:33:07;12.40;;;5.35;;
85265;SDS011;75676;49.522;19.724;2024-03-23T09:35:43;52.38;;;21.23;;
85265;SDS011;75676;49.522;19.724;2024-03-23T09:38:11;7.50;;;4.32;;
85265;SDS011;75676;49.522;19.724;2024-03-23T09:40:43;10.82;;;5.53;;
85265;SDS011;75676;49.522;19.724;2024-03-23T09:43:09;11.50;;;5.10;;
85265;SDS011;75676;49.522;19.724;2024-03-23T09:45:38;10.68;;;4.55;;
85265;SDS011;75676;49.522;19.724;2024-03-23T09:48:06;10.48;;;4.40;;
85265;SDS011;75676;49.522;19.724;2024-03-23T09:50:33;8.65;;;4.22;;
85265;SDS011;75676;49.522;19.724;2024-03-23T09:52:59;9.07;;;3.58;;
85265;SDS011;75676;49.522;19.724;2024-03-23T09:55:26;6.95;;;3.53;;
85265;SDS011;75676;49.522;19.724;2024-03-23T09:57:52;7.80;;;3.47;;
85265;SDS011;75676;49.522;19.724;2024-03-23T10:00:19;4.93;;;2.60;;
85265;SDS011;75676;49.522;19.724;2024-03-23T10:02:47;9.52;;;3.80;;
85265;SDS011;75676;49.522;19.724;2024-03-23T10:05:22;7.40;;;3.13;;
85265;SDS011;75676;49.522;19.724;2024-03-23T10:07:49;7.20;;;3.30;;
85265;SDS011;75676;49.522;19.724;2024-03-23T10:10:16;7.22;;;4.35;;
85265;SDS011;75676;49.522;19.724;2024-03-23T10:12:48;7.68;;;3.72;;
85265;SDS011;75676;49.522;19.724;2024-03-23T10:15:21;10.50;;;4.70;;
85265;SDS011;75676;49.522;19.724;2024-03-23T10:17:49;11.43;;;4.95;;
85265;SDS011;75676;49.522;19.724;2024-03-23T10:20:21;6.20;;;2.97;;
85265;SDS011;75676;49.522;19.724;2024-03-23T10:22:49;8.85;;;4.43;;
85265;SDS011;75676;49.522;19.724;2024-03-23T10:25:16;8.82;;;3.67;;
85265;SDS011;75676;49.522;19.724;2024-03-23T10:27:43;9.27;;;3.63;;
85265;SDS011;75676;49.522;19.724;2024-03-23T10:30:10;11.75;;;2.60;;
85265;SDS011;75676;49.522;19.724;2024-03-23T10:32:38;7.93;;;3.17;;
85265;SDS011;75676;49.522;19.724;2024-03-23T10:35:16;6.07;;;3.10;;
85265;SDS011;75676;49.522;19.724;2024-03-23T10:37:49;5.75;;;2.45;;
85265;SDS011;75676;49.522;19.724;2024-03-23T10:40:17;7.53;;;3.17;;
85265;SDS011;75676;49.522;19.724;2024-03-23T10:42:44;8.77;;;3.53;;
85265;SDS011;75676;49.522;19.724;2024-03-23T10:45:11;6.40;;;3.17;;
85265;SDS011;75676;49.522;19.724;2024-03-23T10:47:37;6.55;;;3.38;;
85265;SDS011;75676;49.522;19.724;2024-03-23T10:50:03;5.50;;;2.60;;
85265;SDS011;75676;49.522;19.724;2024-03-23T10:52:31;6.60;;;3.80;;
85265;SDS011;75676;49.522;19.724;2024-03-23T10:54:58;9.48;;;6.30;;
85265;SDS011;75676;49.522;19.724;2024-03-23T10:57:32;22.00;;;9.50;;
85265;SDS011;75676;49.522;19.724;2024-03-23T11:00:05;6.07;;;2.78;;
85265;SDS011;75676;49.522;19.724;2024-03-23T11:02:33;14.68;;;5.72;;
85265;SDS011;75676;49.522;19.724;2024-03-23T11:04:59;11.13;;;4.30;;
85265;SDS011;75676;49.522;19.724;2024-03-23T11:07:28;18.63;;;6.97;;
85265;SDS011;75676;49.522;19.724;2024-03-23T11:09:56;7.93;;;3.10;;
85265;SDS011;75676;49.522;19.724;2024-03-23T11:14:49;4.38;;;2.25;;
85265;SDS011;75676;49.522;19.724;2024-03-23T11:17:22;7.30;;;3.10;;
85265;SDS011;75676;49.522;19.724;2024-03-23T11:19:53;7.97;;;3.15;;
85265;SDS011;75676;49.522;19.724;2024-03-23T11:22:46;6.10;;;2.60;;
85265;SDS011;75676;49.522;19.724;2024-03-23T11:25:22;11.98;;;3.15;;
85265;SDS011;75676;49.522;19.724;2024-03-23T11:27:50;6.43;;;3.20;;
85265;SDS011;75676;49.522;19.724;2024-03-23T11:32:55;6.03;;;2.25;;
85265;SDS011;75676;49.522;19.724;2024-03-23T11:38:04;5.65;;;2.40;;
85265;SDS011;75676;49.522;19.724;2024-03-23T11:40:34;4.80;;;2.38;;
85265;SDS011;75676;49.522;19.724;2024-03-23T11:43:12;5.53;;;2.50;;
85265;SDS011;75676;49.522;19.724;2024-03-23T11:48:08;12.68;;;3.95;;
85265;SDS011;75676;49.522;19.724;2024-03-23T11:50:36;9.18;;;3.50;;
85265;SDS011;75676;49.522;19.724;2024-03-23T11:53:06;19.25;;;4.97;;
85265;SDS011;75676;49.522;19.724;2024-03-23T11:55:52;6.47;;;3.42;;
85265;SDS011;75676;49.522;19.724;2024-03-23T11:58:19;5.68;;;2.55;;
85265;SDS011;75676;49.522;19.724;2024-03-23T12:00:58;8.38;;;3.08;;
85265;SDS011;75676;49.522;19.724;2024-03-23T12:03:27;5.75;;;3.25;;
85265;SDS011;75676;49.522;19.724;2024-03-23T12:05:59;4.88;;;2.78;;
85265;SDS011;75676;49.522;19.724;2024-03-23T12:08:33;4.10;;;2.03;;
85265;SDS011;75676;49.522;19.724;2024-03-23T12:13:37;7.13;;;3.45;;
85265;SDS011;75676;49.522;19.724;2024-03-23T12:16:19;4.20;;;2.33;;
85265;SDS011;75676;49.522;19.724;2024-03-23T12:18:47;4.10;;;2.67;;
85265;SDS011;75676;49.522;19.724;2024-03-23T12:21:14;14.15;;;3.20;;
85265;SDS011;75676;49.522;19.724;2024-03-23T12:23:42;13.25;;;3.72;;
85265;SDS011;75676;49.522;19.724;2024-03-23T12:26:10;4.55;;;3.05;;
85265;SDS011;75676;49.522;19.724;2024-03-23T12:28:39;11.75;;;3.85;;
85265;SDS011;75676;49.522;19.724;2024-03-23T12:31:05;7.93;;;3.03;;
85265;SDS011;75676;49.522;19.724;2024-03-23T12:33:32;8.55;;;3.10;;
85265;SDS011;75676;49.522;19.724;2024-03-23T12:36:03;8.77;;;4.13;;
85265;SDS011;75676;49.522;19.724;2024-03-23T12:38:29;4.25;;;2.30;;
85265;SDS011;75676;49.522;19.724;2024-03-23T12:40:55;9.75;;;4.00;;
85265;SDS011;75676;49.522;19.724;2024-03-23T12:43:21;12.00;;;3.70;;
85265;SDS011;75676;49.522;19.724;2024-03-23T12:45:47;9.35;;;4.50;;
85265;SDS011;75676;49.522;19.724;2024-03-23T12:48:14;17.65;;;9.15;;
85265;SDS011;75676;49.522;19.724;2024-03-23T12:50:40;10.95;;;4.07;;
85265;SDS011;75676;49.522;19.724;2024-03-23T12:53:06;7.00;;;3.10;;
85265;SDS011;75676;49.522;19.724;2024-03-23T12:55:36;5.30;;;2.90;;
85265;SDS011;75676;49.522;19.724;2024-03-23T12:58:02;9.98;;;3.63;;
85265;SDS011;75676;49.522;19.724;2024-03-23T13:00:29;6.45;;;3.47;;
85265;SDS011;75676;49.522;19.724;2024-03-23T13:02:55;6.63;;;3.50;;
85265;SDS011;75676;49.522;19.724;2024-03-23T13:05:20;8.80;;;3.92;;
85265;SDS011;75676;49.522;19.724;2024-03-23T13:07:46;6.35;;;3.67;;
85265;SDS011;75676;49.522;19.724;2024-03-23T13:10:12;12.00;;;4.93;;
85265;SDS011;75676;49.522;19.724;2024-03-23T13:12:38;7.93;;;3.40;;
85265;SDS011;75676;49.522;19.724;2024-03-23T13:15:04;25.42;;;9.23;;
85265;SDS011;75676;49.522;19.724;2024-03-23T13:17:30;13.30;;;5.38;;
85265;SDS011;75676;49.522;19.724;2024-03-23T13:19:56;6.63;;;3.78;;
85265;SDS011;75676;49.522;19.724;2024-03-23T13:22:22;9.10;;;3.35;;
85265;SDS011;75676;49.522;19.724;2024-03-23T13:24:49;4.88;;;2.60;;
85265;SDS011;75676;49.522;19.724;2024-03-23T13:27:15;6.22;;;2.78;;
85265;SDS011;75676;49.522;19.724;2024-03-23T13:29:41;9.57;;;3.80;;
85265;SDS011;75676;49.522;19.724;2024-03-23T13:32:07;34.90;;;12.93;;
85265;SDS011;75676;49.522;19.724;2024-03-23T13:34:33;5.65;;;2.35;;
85265;SDS011;75676;49.522;19.724;2024-03-23T13:37:00;5.78;;;3.22;;
85265;SDS011;75676;49.522;19.724;2024-03-23T13:39:26;7.82;;;2.75;;
85265;SDS011;75676;49.522;19.724;2024-03-23T13:41:55;5.45;;;2.38;;
85265;SDS011;75676;49.522;19.724;2024-03-23T13:44:21;7.70;;;2.22;;
85265;SDS011;75676;49.522;19.724;2024-03-23T13:46:47;9.50;;;2.53;;
85265;SDS011;75676;49.522;19.724;2024-03-23T13:49:26;8.13;;;2.97;;
85265;SDS011;75676;49.522;19.724;2024-03-23T13:51:52;4.10;;;2.08;;
85265;SDS011;75676;49.522;19.724;2024-03-23T13:54:19;4.65;;;1.80;;
85265;SDS011;75676;49.522;19.724;2024-03-23T13:56:47;4.15;;;1.70;;
85265;SDS011;75676;49.522;19.724;2024-03-23T13:59:13;6.07;;;2.55;;
85265;SDS011;75676;49.522;19.724;2024-03-23T14:01:39;3.75;;;2.00;;
85265;SDS011;75676;49.522;19.724;2024-03-23T14:04:05;5.63;;;2.42;;
85265;SDS011;75676;49.522;19.724;2024-03-23T14:06:31;7.65;;;2.60;;
85265;SDS011;75676;49.522;19.724;2024-03-23T14:08:57;7.07;;;2.50;;
85265;SDS011;75676;49.522;19.724;2024-03-23T14:11:23;5.10;;;2.30;;
85265;SDS011;75676;49.522;19.724;2024-03-23T14:13:52;4.50;;;2.78;;
85265;SDS011;75676;49.522;19.724;2024-03-23T14:16:18;4.03;;;2.50;;
85265;SDS011;75676;49.522;19.724;2024-03-23T14:18:46;7.00;;;2.80;;
85265;SDS011;75676;49.522;19.724;2024-03-23T14:21:12;4.65;;;2.40;;
85265;SDS011;75676;49.522;19.724;2024-03-23T14:23:37;10.70;;;4.15;;
85265;SDS011;75676;49.522;19.724;2024-03-23T14:26:03;8.20;;;3.00;;
85265;SDS011;75676;49.522;19.724;2024-03-23T14:28:29;8.52;;;3.33;;
85265;SDS011;75676;49.522;19.724;2024-03-23T14:30:55;17.00;;;6.43;;
85265;SDS011;75676;49.522;19.724;2024-03-23T14:33:22;11.27;;;3.47;;
85265;SDS011;75676;49.522;19.724;2024-03-23T14:35:54;5.68;;;2.55;;
85265;SDS011;75676;49.522;19.724;2024-03-23T14:38:23;4.32;;;2.58;;
85265;SDS011;75676;49.522;19.724;2024-03-23T14:40:49;8.95;;;3.42;;
85265;SDS011;75676;49.522;19.724;2024-03-23T14:43:18;9.05;;;3.95;;
85265;SDS011;75676;49.522;19.724;2024-03-23T14:48:33;6.13;;;3.13;;
85265;SDS011;75676;49.522;19.724;2024-03-23T14:50:59;8.45;;;4.00;;
85265;SDS011;75676;49.522;19.724;2024-03-23T14:53:25;9.02;;;3.20;;
85265;SDS011;75676;49.522;19.724;2024-03-23T14:55:59;9.45;;;3.83;;
85265;SDS011;75676;49.522;19.724;2024-03-23T14:58:26;5.57;;;2.40;;
85265;SDS011;75676;49.522;19.724;2024-03-23T15:00:52;4.90;;;2.42;;
85265;SDS011;75676;49.522;19.724;2024-03-23T15:03:18;5.72;;;2.10;;
85265;SDS011;75676;49.522;19.724;2024-03-23T15:05:54;5.18;;;2.40;;
85265;SDS011;75676;49.522;19.724;2024-03-23T15:08:21;5.65;;;2.17;;
85265;SDS011;75676;49.522;19.724;2024-03-23T15:10:48;5.75;;;1.90;;
85265;SDS011;75676;49.522;19.724;2024-03-23T15:13:14;15.70;;;2.78;;
85265;SDS011;75676;49.522;19.724;2024-03-23T15:15:43;4.75;;;1.58;;
85265;SDS011;75676;49.522;19.724;2024-03-23T15:18:13;3.85;;;1.48;;
85265;SDS011;75676;49.522;19.724;2024-03-23T15:20:57;2.78;;;1.10;;
85265;SDS011;75676;49.522;19.724;2024-03-23T15:23:46;5.00;;;1.20;;
85265;SDS011;75676;49.522;19.724;2024-03-23T15:26:12;4.55;;;1.10;;
85265;SDS011;75676;49.522;19.724;2024-03-23T15:28:37;2.28;;;1.13;;
85265;SDS011;75676;49.522;19.724;2024-03-23T15:31:05;2.65;;;1.55;;
85265;SDS011;75676;49.522;19.724;2024-03-23T15:33:33;3.67;;;1.08;;
85265;SDS011;75676;49.522;19.724;2024-03-23T15:35:59;2.70;;;1.33;;
85265;SDS011;75676;49.522;19.724;2024-03-23T15:38:25;1.25;;;0.90;;
85265;SDS011;75676;49.522;19.724;2024-03-23T15:40:54;2.50;;;1.63;;
85265;SDS011;75676;49.522;19.724;2024-03-23T15:43:20;9.20;;;4.07;;
85265;SDS011;75676;49.522;19.724;2024-03-23T15:48:28;2.00;;;1.20;;
85265;SDS011;75676;49.522;19.724;2024-03-23T15:50:59;3.38;;;1.67;;
85265;SDS011;75676;49.522;19.724;2024-03-23T15:53:29;4.93;;;2.60;;
85265;SDS011;75676;49.522;19.724;2024-03-23T15:58:27;10.82;;;5.43;;
85265;SDS011;75676;49.522;19.724;2024-03-23T16:00:58;9.25;;;4.10;;
85265;SDS011;75676;49.522;19.724;2024-03-23T16:03:31;4.78;;;3.00;;
85265;SDS011;75676;49.522;19.724;2024-03-23T16:05:59;2.67;;;1.17;;